Back to Top

Language: 

My Weather Underground Personal Weather Station Historical Data with Graphs...

Delerius Weather Station Historical Data
Daily Summary for August 27, 2017 Units:  Metric    English   Both
« Previous Day
Next Day »
Daily Weekly Monthly Yearly Custom
  High: Low: Average:
Temperature: 24.1 °C 8.9 °C 17 °C
Dew Point: 15.1 °C 7.8 °C 12 °C
Humidity: 96 % 53 % 74 %
Wind Speed: 11.3 km/h 0 km/h 3.7 km/h
Wind Gust: 19.3 km/h - -
Wind:- - West
Pressure: 1018.5 hPa 1016.8 hPa -
Precipitation: 0 mm    
Historical Graphs
 
 
Tabular Data for August 27, 2017
Time Temperature Dew Point Pressure Wind Wind Speed Wind Gust Humidity Rainfall Rate (Hourly) solar Conditions
00:02 12.2 °C 9.9 °C 1017.2 hPa WNW 4.8 km/h 11.3 km/h 86 % 0 mm 0 W/m2
00:07 12.2 °C 9.9 °C 1017.2 hPa WNW 6.4 km/h 11.3 km/h 86 % 0 mm 0 W/m2
00:12 12.2 °C 9.9 °C 1017.5 hPa WNW 4.8 km/h 11.3 km/h 86 % 0 mm 0 W/m2
00:17 12.2 °C 9.9 °C 1017.5 hPa WNW 3.2 km/h 11.3 km/h 86 % 0 mm 0 W/m2
00:23 12.1 °C 9.8 °C 1017.2 hPa WNW 3.2 km/h 8 km/h 86 % 0 mm 0 W/m2
00:28 11.9 °C 9.6 °C 1017.5 hPa WNW 3.2 km/h 8 km/h 86 % 0 mm 0 W/m2
00:33 11.8 °C 9.6 °C 1017.5 hPa WNW 4.8 km/h 9.7 km/h 86 % 0 mm 0 W/m2
00:38 11.7 °C 9.4 °C 1017.5 hPa WNW 6.4 km/h 9.7 km/h 86 % 0 mm 0 W/m2
00:43 11.6 °C 9.3 °C 1017.2 hPa WNW 6.4 km/h 9.7 km/h 86 % 0 mm 0 W/m2
00:48 11.6 °C 9.5 °C 1017.2 hPa WNW 4.8 km/h 8 km/h 87 % 0 mm 0 W/m2
00:53 11.5 °C 9.4 °C 1017.5 hPa WNW 3.2 km/h 8 km/h 87 % 0 mm 0 W/m2
00:58 11.4 °C 9.3 °C 1017.5 hPa WNW 1.6 km/h 6.4 km/h 87 % 0 mm 0 W/m2
01:03 11.3 °C 9.2 °C 1017.5 hPa WNW 1.6 km/h 6.4 km/h 87 % 0 mm 0 W/m2
01:08 11.3 °C 9.2 °C 1017.5 hPa WNW 3.2 km/h 8 km/h 87 % 0 mm 0 W/m2
01:13 11.2 °C 9.3 °C 1017.5 hPa WNW 4.8 km/h 8 km/h 88 % 0 mm 0 W/m2
01:18 11.2 °C 9.3 °C 1017.5 hPa WNW 4.8 km/h 8 km/h 88 % 0 mm 0 W/m2
01:23 11.2 °C 9.3 °C 1017.5 hPa WNW 3.2 km/h 8 km/h 88 % 0 mm 0 W/m2
01:28 11.1 °C 9.2 °C 1017.5 hPa WNW 1.6 km/h 6.4 km/h 88 % 0 mm 0 W/m2
01:33 11.1 °C 9.2 °C 1017.5 hPa Calm   6.4 km/h 88 % 0 mm 0 W/m2
01:38 11 °C 9.1 °C 1017.5 hPa Calm     88 % 0 mm 0 W/m2
01:43 10.8 °C 8.7 °C 1017.5 hPa Calm     87 % 0 mm 0 W/m2
01:48 10.7 °C 8.6 °C 1017.5 hPa Calm     87 % 0 mm 0 W/m2
01:53 10.6 °C 8.5 °C 1017.5 hPa Calm     87 % 0 mm 0 W/m2
01:58 10.4 °C 8.5 °C 1017.5 hPa Calm     88 % 0 mm 0 W/m2
02:03 10.3 °C 8.4 °C 1017.5 hPa Calm     88 % 0 mm 0 W/m2
02:08 10.1 °C 8.2 °C 1017.5 hPa Calm     88 % 0 mm 0 W/m2
02:13 10.1 °C 8.4 °C 1017.5 hPa Calm   1.6 km/h 89 % 0 mm 0 W/m2
02:18 9.9 °C 8.2 °C 1017.5 hPa Calm   1.6 km/h 89 % 0 mm 0 W/m2
02:19 9.9 °C 8.2 °C 1017.5 hPa Calm   1.6 km/h 89 % 0 mm 0 W/m2
02:24 9.8 °C 8.2 °C 1017.5 hPa Calm     90 % 0 mm 0 W/m2
02:29 9.9 °C 8.3 °C 1017.5 hPa Calm     90 % 0 mm 0 W/m2
02:34 9.8 °C 8.2 °C 1017.5 hPa Calm     90 % 0 mm 0 W/m2
02:39 9.7 °C 8.1 °C 1017.5 hPa West 3.2 km/h 8 km/h 90 % 0 mm 0 W/m2
02:44 9.8 °C 8.4 °C 1017.5 hPa West 3.2 km/h 8 km/h 91 % 0 mm 0 W/m2
02:49 9.8 °C 8.4 °C 1017.5 hPa West 1.6 km/h 8 km/h 91 % 0 mm 0 W/m2
02:54 9.7 °C 8.1 °C 1017.5 hPa Calm     90 % 0 mm 0 W/m2
02:59 9.6 °C 8.1 °C 1017.5 hPa Calm     90 % 0 mm 0 W/m2
03:04 9.4 °C 7.8 °C 1017.5 hPa Calm   1.6 km/h 90 % 0 mm 0 W/m2
03:09 9.3 °C 7.9 °C 1017.5 hPa Calm   6.4 km/h 91 % 0 mm 0 W/m2
03:10 9.3 °C 7.9 °C 1017.5 hPa Calm   6.4 km/h 91 % 0 mm 0 W/m2
03:15 9.3 °C 7.9 °C 1017.5 hPa West 3.2 km/h 9.7 km/h 91 % 0 mm 0 W/m2
03:20 9.3 °C 7.9 °C 1017.5 hPa West 4.8 km/h 9.7 km/h 91 % 0 mm 0 W/m2
03:25 9.5 °C 8.3 °C 1017.5 hPa West 3.2 km/h 8 km/h 92 % 0 mm 0 W/m2
03:30 9.5 °C 8.3 °C 1017.5 hPa West 3.2 km/h 6.4 km/h 92 % 0 mm 0 W/m2
03:35 9.6 °C 8.4 °C 1017.5 hPa West 3.2 km/h 9.7 km/h 92 % 0 mm 0 W/m2
03:40 9.7 °C 8.4 °C 1017.5 hPa WNW 3.2 km/h 9.7 km/h 92 % 0 mm 0 W/m2
03:50 9.6 °C 8.2 °C 1017.5 hPa WNW 1.6 km/h 8 km/h 91 % 0 mm 0 W/m2
03:55 9.6 °C 8.4 °C 1017.5 hPa WNW 4.8 km/h 12.9 km/h 92 % 0 mm 0 W/m2
04:00 9.8 °C 8.6 °C 1017.5 hPa WNW 6.4 km/h 14.5 km/h 92 % 0 mm 0 W/m2
04:05 9.6 °C 8.2 °C 1017.5 hPa WNW 4.8 km/h 14.5 km/h 91 % 0 mm 0 W/m2
04:10 9.5 °C 8.1 °C 1017.5 hPa WNW 1.6 km/h 9.7 km/h 91 % 0 mm 0 W/m2
04:15 9.4 °C 8 °C 1017.5 hPa Calm   8 km/h 91 % 0 mm 0 W/m2
04:20 9.3 °C 7.9 °C 1017.5 hPa WNW 1.6 km/h 8 km/h 91 % 0 mm 0 W/m2
04:21 9.3 °C 7.9 °C 1017.5 hPa WNW 1.6 km/h 8 km/h 91 % 0 mm 0 W/m2
04:26 9.2 °C 7.8 °C 1017.5 hPa WNW 3.2 km/h 8 km/h 91 % 0 mm 0 W/m2
04:31 9.3 °C 8.1 °C 1017.5 hPa WNW 4.8 km/h 9.7 km/h 92 % 0 mm 0 W/m2
04:36 9.4 °C 8.2 °C 1017.5 hPa WNW 4.8 km/h 9.7 km/h 92 % 0 mm 0 W/m2
04:41 9.3 °C 8.1 °C 1017.5 hPa WNW 3.2 km/h 8 km/h 92 % 0 mm 0 W/m2
04:46 9.3 °C 8.1 °C 1017.5 hPa WNW 3.2 km/h 8 km/h 92 % 0 mm 0 W/m2
04:51 9.3 °C 8.1 °C 1017.5 hPa WNW 1.6 km/h 4.8 km/h 92 % 0 mm 0 W/m2
04:56 9.3 °C 8.1 °C 1017.5 hPa Calm   3.2 km/h 92 % 0 mm 0 W/m2
05:01 9.3 °C 8.1 °C 1017.5 hPa Calm   1.6 km/h 92 % 0 mm 0 W/m2
05:06 9.2 °C 7.9 °C 1017.5 hPa Calm   6.4 km/h 92 % 0 mm 0 W/m2
05:11 9.3 °C 8.2 °C 1017.5 hPa WNW 3.2 km/h 9.7 km/h 93 % 0 mm 0 W/m2
05:12 9.3 °C 8.2 °C 1017.5 hPa WNW 3.2 km/h 9.7 km/h 93 % 0 mm 0 W/m2
05:17 9.5 °C 8.4 °C 1017.5 hPa WNW 6.4 km/h 11.3 km/h 93 % 0 mm 0 W/m2
05:22 9.7 °C 8.6 °C 1017.5 hPa WNW 6.4 km/h 11.3 km/h 93 % 0 mm 0 W/m2
05:27 9.6 °C 8.4 °C 1017.5 hPa WNW 3.2 km/h 9.7 km/h 92 % 0 mm 0 W/m2
05:32 9.5 °C 8.3 °C 1017.5 hPa Calm   6.4 km/h 92 % 0 mm 0 W/m2
05:37 9.4 °C 8.2 °C 1017.5 hPa Calm   3.2 km/h 92 % 0 mm 0 W/m2
05:42 9.3 °C 8.1 °C 1017.5 hPa Calm   1.6 km/h 92 % 0 mm 0 W/m2
05:47 9.2 °C 7.9 °C 1017.5 hPa Calm   4.8 km/h 92 % 0 mm 0 W/m2
05:52 9.2 °C 7.9 °C 1017.5 hPa WNW 1.6 km/h 6.4 km/h 92 % 0 mm 0 W/m2
05:58 9.1 °C 7.9 °C 1017.5 hPa WNW 1.6 km/h 6.4 km/h 92 % 0 mm 0 W/m2
06:02 9.1 °C 7.9 °C 1017.5 hPa Calm   3.2 km/h 92 % 0 mm 5 W/m2
06:08 9.1 °C 7.9 °C 1017.5 hPa Calm     92 % 0 mm 5 W/m2
06:13 9.1 °C 8 °C 1017.8 hPa Calm     93 % 0 mm 7 W/m2
06:18 9.1 °C 8 °C 1017.8 hPa Calm     93 % 0 mm 11 W/m2
06:23 9 °C 7.9 °C 1017.8 hPa Calm     93 % 0 mm 14 W/m2
06:28 9 °C 7.9 °C 1017.8 hPa Calm     93 % 0 mm 18 W/m2
06:33 8.9 °C 7.8 °C 1017.8 hPa Calm   1.6 km/h 93 % 0 mm 21 W/m2
06:38 8.9 °C 7.8 °C 1017.8 hPa Calm   1.6 km/h 93 % 0 mm 25 W/m2
06:43 8.9 °C 7.8 °C 1017.8 hPa Calm     93 % 0 mm 26 W/m2
06:48 8.9 °C 7.8 °C 1017.8 hPa Calm     93 % 0 mm 28 W/m2
06:53 9 °C 7.9 °C 1017.8 hPa Calm     93 % 0 mm 32 W/m2
06:58 9.1 °C 8.2 °C 1018.2 hPa Calm   3.2 km/h 94 % 0 mm 46 W/m2
07:03 9.2 °C 8.3 °C 1018.2 hPa Calm   3.2 km/h 94 % 0 mm 67 W/m2
07:08 9.4 °C 8.5 °C 1018.2 hPa Calm   1.6 km/h 94 % 0 mm 97 W/m2
07:13 9.7 °C 8.9 °C 1018.2 hPa Calm     95 % 0 mm 130 W/m2
07:18 10.1 °C 9.3 °C 1018.2 hPa Calm     95 % 0 mm 146 W/m2
07:23 10.6 °C 10 °C 1018.2 hPa Calm     96 % 0 mm 128 W/m2
07:28 10.9 °C 9.9 °C 1018.2 hPa Calm     94 % 0 mm 179 W/m2
07:33 11.2 °C 10.1 °C 1018.2 hPa Calm     93 % 0 mm 190 W/m2
07:38 11.5 °C 10.4 °C 1018.2 hPa Calm     93 % 0 mm 197 W/m2
07:43 11.9 °C 10.7 °C 1018.2 hPa Calm     92 % 0 mm 207 W/m2
07:48 12.3 °C 10.9 °C 1018.2 hPa Calm     91 % 0 mm 213 W/m2
07:53 12.6 °C 11 °C 1018.2 hPa Calm     90 % 0 mm 225 W/m2
07:58 12.9 °C 11.1 °C 1018.5 hPa Calm     89 % 0 mm 239 W/m2
08:03 13.2 °C 11.3 °C 1018.2 hPa Calm     88 % 0 mm 255 W/m2
08:08 13.6 °C 11.5 °C 1018.2 hPa Calm   6.4 km/h 87 % 0 mm 271 W/m2
08:13 13.9 °C 11.6 °C 1018.5 hPa Calm   6.4 km/h 86 % 0 mm 288 W/m2
08:18 14.3 °C 12 °C 1018.2 hPa Calm   4.8 km/h 86 % 0 mm 283 W/m2
08:23 14.7 °C 12.2 °C 1018.5 hPa West 1.6 km/h 8 km/h 85 % 0 mm 316 W/m2
08:28 15.3 °C 12.4 °C 1018.5 hPa West 3.2 km/h 9.7 km/h 83 % 0 mm 329 W/m2
08:33 15.8 °C 12.3 °C 1018.5 hPa West 4.8 km/h 9.7 km/h 80 % 0 mm 338 W/m2
08:38 16.3 °C 12.4 °C 1018.5 hPa West 4.8 km/h 9.7 km/h 78 % 0 mm 350 W/m2
08:43 16.8 °C 12.6 °C 1018.5 hPa WNW 4.8 km/h 12.9 km/h 76 % 0 mm 362 W/m2
08:48 17.3 °C 12.4 °C 1018.5 hPa WNW 6.4 km/h 12.9 km/h 73 % 0 mm 374 W/m2
08:53 17.6 °C 12.3 °C 1018.5 hPa WNW 6.4 km/h 12.9 km/h 71 % 0 mm 388 W/m2
08:58 17.9 °C 12.3 °C 1018.5 hPa West 6.4 km/h 12.9 km/h 70 % 0 mm 403 W/m2
09:03 18.1 °C 12.3 °C 1018.5 hPa West 8 km/h 12.9 km/h 69 % 0 mm 424 W/m2
09:08 18.3 °C 12.3 °C 1018.5 hPa WNW 6.4 km/h 11.3 km/h 68 % 0 mm 464 W/m2
09:13 18.5 °C 12.3 °C 1018.5 hPa WNW 6.4 km/h 12.9 km/h 67 % 0 mm 290 W/m2
09:18 18.8 °C 12.6 °C 1018.5 hPa WNW 8 km/h 14.5 km/h 67 % 0 mm 257 W/m2
09:23 18.9 °C 12.4 °C 1018.5 hPa WNW 8 km/h 14.5 km/h 66 % 0 mm 267 W/m2
09:28 19 °C 12.1 °C 1018.5 hPa WNW 8 km/h 12.9 km/h 64 % 0 mm 241 W/m2
09:33 18.9 °C 12.2 °C 1018.5 hPa WNW 6.4 km/h 12.9 km/h 65 % 0 mm 246 W/m2
09:38 18.9 °C 11.9 °C 1018.5 hPa WNW 4.8 km/h 9.7 km/h 64 % 0 mm 364 W/m2
09:43 18.9 °C 11.9 °C 1018.5 hPa WNW 3.2 km/h 8 km/h 64 % 0 mm 497 W/m2
09:48 19 °C 12.1 °C 1018.5 hPa WNW 3.2 km/h 8 km/h 64 % 0 mm 533 W/m2
09:53 19.3 °C 11.8 °C 1018.5 hPa West 1.6 km/h 8 km/h 62 % 0 mm 522 W/m2
09:58 19.4 °C 11.9 °C 1018.5 hPa West 3.2 km/h 9.7 km/h 62 % 0 mm 552 W/m2
10:04 19.6 °C 12.1 °C 1018.5 hPa West 3.2 km/h 9.7 km/h 62 % 0 mm 563 W/m2
10:09 19.8 °C 12.1 °C 1018.5 hPa West 3.2 km/h 9.7 km/h 61 % 0 mm 580 W/m2
10:14 19.9 °C 12.2 °C 1018.5 hPa West 3.2 km/h 8 km/h 61 % 0 mm 589 W/m2
10:19 19.8 °C 12.1 °C 1018.5 hPa WSW 3.2 km/h 11.3 km/h 61 % 0 mm 564 W/m2
10:24 19.8 °C 12.1 °C 1018.5 hPa SW 3.2 km/h 11.3 km/h 61 % 0 mm 708 W/m2
10:29 20.1 °C 12.6 °C 1018.5 hPa SW 3.2 km/h 8 km/h 62 % 0 mm 742 W/m2
10:34 20.3 °C 12.8 °C 1018.5 hPa WSW 6.4 km/h 17.7 km/h 62 % 0 mm 455 W/m2
10:39 20.1 °C 12.6 °C 1018.5 hPa WSW 9.7 km/h 17.7 km/h 62 % 0 mm 241 W/m2
10:44 19.9 °C 12.7 °C 1018.5 hPa WSW 8 km/h 12.9 km/h 63 % 0 mm 257 W/m2
10:49 19.8 °C 12.6 °C 1018.5 hPa West 8 km/h 14.5 km/h 63 % 0 mm 234 W/m2
10:54 19.8 °C 12.8 °C 1018.5 hPa West 6.4 km/h 14.5 km/h 64 % 0 mm 227 W/m2
10:59 19.7 °C 12.7 °C 1018.2 hPa WSW 4.8 km/h 11.3 km/h 64 % 0 mm 309 W/m2
11:04 19.7 °C 13.2 °C 1018.2 hPa SW 3.2 km/h 11.3 km/h 66 % 0 mm 870 W/m2
11:09 20 °C 13.2 °C 1018.2 hPa WSW 3.2 km/h 11.3 km/h 65 % 0 mm 649 W/m2
11:14 20.2 °C 13.2 °C 1018.2 hPa West 4.8 km/h 11.3 km/h 64 % 0 mm 603 W/m2
11:19 20.6 °C 13.3 °C 1018.2 hPa West 3.2 km/h 9.7 km/h 63 % 0 mm 710 W/m2
11:24 20.9 °C 13.6 °C 1018.2 hPa NW 1.6 km/h 8 km/h 63 % 0 mm 756 W/m2
11:29 21.2 °C 13.9 °C 1018.2 hPa West 3.2 km/h 9.7 km/h 63 % 0 mm 858 W/m2
11:34 21.6 °C 14 °C 1018.2 hPa West 6.4 km/h 11.3 km/h 62 % 0 mm 758 W/m2
11:39 22 °C 13.9 °C 1018.2 hPa WNW 8 km/h 19.3 km/h 60 % 0 mm 643 W/m2
11:44 22.2 °C 13.6 °C 1018.2 hPa WNW 8 km/h 19.3 km/h 58 % 0 mm 190 W/m2
11:49 22.2 °C 13.8 °C 1018.2 hPa WNW 6.4 km/h 14.5 km/h 59 % 0 mm 265 W/m2
11:54 22.1 °C 13.7 °C 1018.2 hPa NW 4.8 km/h 12.9 km/h 59 % 0 mm 313 W/m2
11:59 22 °C 13.6 °C 1018.2 hPa West 6.4 km/h 16.1 km/h 59 % 0 mm 392 W/m2
12:04 21.8 °C 13.7 °C 1018.2 hPa West 9.7 km/h 16.1 km/h 60 % 0 mm 860 W/m2
12:09 22 °C 14.1 °C 1018.2 hPa West 9.7 km/h 14.5 km/h 61 % 0 mm 860 W/m2
12:13 22.1 °C 13.9 °C 1017.8 hPa West 9.7 km/h 14.5 km/h 60 % 0 mm 875 W/m2
12:18 22.3 °C 13.9 °C 1017.8 hPa WNW 6.4 km/h 14.5 km/h 59 % 0 mm 844 W/m2
12:23 22.3 °C 13.9 °C 1017.8 hPa WNW 4.8 km/h 14.5 km/h 59 % 0 mm 715 W/m2
12:28 22.4 °C 14 °C 1017.8 hPa West 8 km/h 17.7 km/h 59 % 0 mm 826 W/m2
12:33 22.5 °C 13.8 °C 1017.8 hPa West 11.3 km/h 17.7 km/h 58 % 0 mm 339 W/m2
12:38 22.6 °C 14.2 °C 1017.8 hPa West 11.3 km/h 19.3 km/h 59 % 0 mm 986 W/m2
12:43 22.6 °C 14.2 °C 1017.8 hPa West 9.7 km/h 19.3 km/h 59 % 0 mm 670 W/m2
12:48 22.6 °C 14.4 °C 1017.8 hPa West 11.3 km/h 17.7 km/h 60 % 0 mm 636 W/m2
12:53 22.6 °C 13.9 °C 1017.8 hPa West 9.7 km/h 17.7 km/h 58 % 0 mm 323 W/m2
12:58 22.6 °C 14.2 °C 1017.8 hPa WNW 9.7 km/h 17.7 km/h 59 % 0 mm 302 W/m2
13:03 22.5 °C 13.8 °C 1017.8 hPa WNW 8 km/h 17.7 km/h 58 % 0 mm 285 W/m2
13:08 22.3 °C 13.6 °C 1017.8 hPa West 8 km/h 14.5 km/h 58 % 0 mm 341 W/m2
13:13 22.3 °C 13.9 °C 1017.8 hPa West 8 km/h 14.5 km/h 59 % 0 mm 327 W/m2
13:18 22.3 °C 13.6 °C 1017.8 hPa WNW 6.4 km/h 14.5 km/h 58 % 0 mm 343 W/m2
13:23 22.3 °C 14.2 °C 1017.8 hPa WNW 8 km/h 14.5 km/h 60 % 0 mm 265 W/m2
13:28 22.3 °C 13.9 °C 1017.8 hPa WNW 4.8 km/h 14.5 km/h 59 % 0 mm 241 W/m2
13:33 22.2 °C 14.1 °C 1017.8 hPa WNW 3.2 km/h 14.5 km/h 60 % 0 mm 322 W/m2
13:38 22.2 °C 14.1 °C 1017.8 hPa NW 6.4 km/h 16.1 km/h 60 % 0 mm 274 W/m2
13:43 22.2 °C 13.8 °C 1017.8 hPa NW 8 km/h 16.1 km/h 59 % 0 mm 415 W/m2
13:48 22.2 °C 14.1 °C 1017.8 hPa WNW 8 km/h 12.9 km/h 60 % 0 mm 373 W/m2
13:53 22.3 °C 13.9 °C 1017.8 hPa West 4.8 km/h 11.3 km/h 59 % 0 mm 422 W/m2
13:58 22.4 °C 14 °C 1017.8 hPa West 4.8 km/h 16.1 km/h 59 % 0 mm 345 W/m2
14:03 22.6 °C 14.4 °C 1017.8 hPa WNW 6.4 km/h 16.1 km/h 60 % 0 mm 332 W/m2
14:08 22.7 °C 14.3 °C 1017.8 hPa NW 9.7 km/h 17.7 km/h 59 % 0 mm 341 W/m2
14:13 22.7 °C 14.3 °C 1017.8 hPa WNW 9.7 km/h 17.7 km/h 59 % 0 mm 336 W/m2
14:18 22.7 °C 14.3 °C 1017.8 hPa West 9.7 km/h 14.5 km/h 59 % 0 mm 427 W/m2
14:23 22.7 °C 14 °C 1017.8 hPa West 9.7 km/h 14.5 km/h 58 % 0 mm 568 W/m2
14:28 22.9 °C 13.9 °C 1017.8 hPa West 9.7 km/h 14.5 km/h 57 % 0 mm 397 W/m2
14:33 23.1 °C 14.4 °C 1017.8 hPa West 9.7 km/h 17.7 km/h 58 % 0 mm 643 W/m2
14:38 23.3 °C 14.1 °C 1017.5 hPa West 9.7 km/h 17.7 km/h 56 % 0 mm 515 W/m2
14:43 23.3 °C 14.3 °C 1017.5 hPa West 9.7 km/h 14.5 km/h 57 % 0 mm 668 W/m2
14:48 23.3 °C 14.6 °C 1017.5 hPa WSW 8 km/h 14.5 km/h 58 % 0 mm 749 W/m2
14:53 23.1 °C 14.4 °C 1017.5 hPa SW 9.7 km/h 16.1 km/h 58 % 0 mm 733 W/m2
14:58 23.1 °C 14.4 °C 1017.5 hPa SW 11.3 km/h 16.1 km/h 58 % 0 mm 749 W/m2
15:03 22.8 °C 14.4 °C 1017.5 hPa SW 9.7 km/h 16.1 km/h 59 % 0 mm 745 W/m2
15:08 22.7 °C 14.3 °C 1017.5 hPa SSW 9.7 km/h 14.5 km/h 59 % 0 mm 687 W/m2
15:13 22.8 °C 14.4 °C 1017.5 hPa SW 8 km/h 12.9 km/h 59 % 0 mm 696 W/m2
15:18 23 °C 14.6 °C 1017.5 hPa WSW 6.4 km/h 9.7 km/h 59 % 0 mm 675 W/m2
15:23 23.2 °C 14.5 °C 1017.5 hPa SSW 6.4 km/h 12.9 km/h 58 % 0 mm 663 W/m2
15:28 23.2 °C 14.7 °C 1017.5 hPa South 6.4 km/h 14.5 km/h 59 % 0 mm 659 W/m2
15:34 23.3 °C 14.6 °C 1017.5 hPa SSW 4.8 km/h 14.5 km/h 58 % 0 mm 668 W/m2
15:39 23.5 °C 14.5 °C 1017.5 hPa SW 3.2 km/h 9.7 km/h 57 % 0 mm 279 W/m2
15:44 23.4 °C 14.4 °C 1017.5 hPa SW 3.2 km/h 9.7 km/h 57 % 0 mm 193 W/m2
15:49 23.3 °C 14.6 °C 1017.5 hPa SSW 3.2 km/h 12.9 km/h 58 % 0 mm 214 W/m2
15:54 23.1 °C 14.4 °C 1017.5 hPa SSW 3.2 km/h 12.9 km/h 58 % 0 mm 262 W/m2
15:59 22.9 °C 14.4 °C 1017.5 hPa SSW 4.8 km/h 9.7 km/h 59 % 0 mm 278 W/m2
16:04 22.9 °C 14.2 °C 1017.5 hPa SSW 4.8 km/h 9.7 km/h 58 % 0 mm 322 W/m2
16:09 22.9 °C 14.2 °C 1017.2 hPa South 1.6 km/h 8 km/h 58 % 0 mm 230 W/m2
16:14 22.8 °C 14.1 °C 1017.5 hPa SSW 3.2 km/h 9.7 km/h 58 % 0 mm 211 W/m2
16:19 22.8 °C 14.4 °C 1017.2 hPa SSW 4.8 km/h 9.7 km/h 59 % 0 mm 250 W/m2
16:24 22.8 °C 14.6 °C 1017.5 hPa SSW 3.2 km/h 9.7 km/h 60 % 0 mm 297 W/m2
16:29 22.8 °C 14.6 °C 1017.5 hPa SSW 3.2 km/h 9.7 km/h 60 % 0 mm 193 W/m2
16:34 22.9 °C 14.4 °C 1017.2 hPa SSW 3.2 km/h 9.7 km/h 59 % 0 mm 615 W/m2
16:39 23.1 °C 14.9 °C 1017.2 hPa SSW 3.2 km/h 9.7 km/h 60 % 0 mm 601 W/m2
16:44 23.2 °C 14.5 °C 1017.2 hPa SSW 6.4 km/h 9.7 km/h 58 % 0 mm 190 W/m2
16:49 23.4 °C 14.1 °C 1017.2 hPa SW 4.8 km/h 9.7 km/h 56 % 0 mm 237 W/m2
16:54 23.8 °C 14.8 °C 1017.2 hPa WSW 3.2 km/h 11.3 km/h 57 % 0 mm 622 W/m2
16:59 24 °C 14.4 °C 1017.2 hPa WSW 6.4 km/h 12.9 km/h 55 % 0 mm 622 W/m2
17:04 24 °C 14.1 °C 1017.2 hPa WSW 6.4 km/h 12.9 km/h 54 % 0 mm 225 W/m2
17:09 23.9 °C 14 °C 1016.8 hPa West 6.4 km/h 12.9 km/h 54 % 0 mm 225 W/m2
17:14 23.9 °C 14.3 °C 1016.8 hPa West 4.8 km/h 9.7 km/h 55 % 0 mm 554 W/m2
17:19 24 °C 13.8 °C 1017.2 hPa WSW 8 km/h 19.3 km/h 53 % 0 mm 497 W/m2
17:24 24.1 °C 13.9 °C 1017.2 hPa West 11.3 km/h 19.3 km/h 53 % 0 mm 295 W/m2
17:29 24.1 °C 14.2 °C 1016.8 hPa West 11.3 km/h 19.3 km/h 54 % 0 mm 216 W/m2
17:34 24 °C 13.8 °C 1016.8 hPa West 11.3 km/h 19.3 km/h 53 % 0 mm 169 W/m2
17:39 23.9 °C 14 °C 1016.8 hPa West 11.3 km/h 19.3 km/h 54 % 0 mm 158 W/m2
17:44 23.9 °C 14 °C 1016.8 hPa West 9.7 km/h 16.1 km/h 54 % 0 mm 160 W/m2
17:49 23.8 °C 14.2 °C 1016.8 hPa West 9.7 km/h 17.7 km/h 55 % 0 mm 151 W/m2
17:54 23.6 °C 14.1 °C 1016.8 hPa West 9.7 km/h 17.7 km/h 55 % 0 mm 171 W/m2
17:59 23.4 °C 14.1 °C 1016.8 hPa WSW 9.7 km/h 16.1 km/h 56 % 0 mm 223 W/m2
18:04 23.3 °C 14.3 °C 1016.8 hPa WSW 8 km/h 14.5 km/h 57 % 0 mm 185 W/m2
18:09 23.3 °C 14.3 °C 1016.8 hPa SW 8 km/h 14.5 km/h 57 % 0 mm 209 W/m2
18:14 23.3 °C 14.6 °C 1016.8 hPa WSW 8 km/h 14.5 km/h 58 % 0 mm 105 W/m2
18:19 23.2 °C 14.2 °C 1016.8 hPa WSW 9.7 km/h 19.3 km/h 57 % 0 mm 95 W/m2
18:24 23 °C 14 °C 1016.8 hPa WSW 11.3 km/h 19.3 km/h 57 % 0 mm 83 W/m2
18:29 22.7 °C 14 °C 1016.8 hPa WSW 9.7 km/h 16.1 km/h 58 % 0 mm 62 W/m2
18:34 22.5 °C 13.8 °C 1016.8 hPa WSW 9.7 km/h 16.1 km/h 58 % 0 mm 58 W/m2
18:39 22.4 °C 14 °C 1016.8 hPa WSW 8 km/h 12.9 km/h 59 % 0 mm 49 W/m2
18:44 22.2 °C 13.8 °C 1016.8 hPa WSW 8 km/h 14.5 km/h 59 % 0 mm 47 W/m2
18:49 22.1 °C 13.9 °C 1016.8 hPa WSW 8 km/h 14.5 km/h 60 % 0 mm 58 W/m2
18:54 21.9 °C 14.1 °C 1016.8 hPa WSW 6.4 km/h 14.5 km/h 61 % 0 mm 69 W/m2
18:59 21.9 °C 14.1 °C 1016.8 hPa WSW 4.8 km/h 9.7 km/h 61 % 0 mm 114 W/m2
19:04 21.9 °C 14.3 °C 1016.8 hPa SW 3.2 km/h 8 km/h 62 % 0 mm 97 W/m2
19:09 21.9 °C 14.6 °C 1016.8 hPa WSW 3.2 km/h 8 km/h 63 % 0 mm 107 W/m2
19:14 21.8 °C 14.7 °C 1016.8 hPa SW 1.6 km/h 6.4 km/h 64 % 0 mm 98 W/m2
19:19 21.8 °C 14.7 °C 1016.8 hPa WSW 1.6 km/h 6.4 km/h 64 % 0 mm 95 W/m2
19:24 21.7 °C 14.6 °C 1016.8 hPa WSW 1.6 km/h 6.4 km/h 64 % 0 mm 69 W/m2
19:29 21.7 °C 14.8 °C 1016.8 hPa WSW 1.6 km/h 6.4 km/h 65 % 0 mm 49 W/m2
19:32 21.6 °C 14.7 °C 1016.8 hPa SW 1.6 km/h 6.4 km/h 65 % 0 mm 42 W/m2
19:36 21.6 °C 14.7 °C 1016.8 hPa WSW 1.6 km/h 6.4 km/h 65 % 0 mm 30 W/m2
19:41 21.4 °C 14.6 °C 1016.8 hPa WSW 1.6 km/h 4.8 km/h 65 % 0 mm 25 W/m2
19:46 21.3 °C 14.4 °C 1016.8 hPa WSW 1.6 km/h 3.2 km/h 65 % 0 mm 21 W/m2
19:51 21.2 °C 14.6 °C 1016.8 hPa Calm   3.2 km/h 66 % 0 mm 18 W/m2
19:56 21.1 °C 14.7 °C 1016.8 hPa Calm   1.6 km/h 67 % 0 mm 14 W/m2
20:01 20.9 °C 14.8 °C 1016.8 hPa Calm   1.6 km/h 68 % 0 mm 11 W/m2
20:06 20.8 °C 14.9 °C 1016.8 hPa Calm     69 % 0 mm 5 W/m2
20:11 20.7 °C 14.8 °C 1016.8 hPa Calm     69 % 0 mm 0 W/m2
20:16 20.5 °C 15.1 °C 1016.8 hPa Calm     71 % 0 mm 0 W/m2
20:21 20.3 °C 15.1 °C 1016.8 hPa Calm     72 % 0 mm 0 W/m2
20:26 20.1 °C 14.9 °C 1017.2 hPa Calm     72 % 0 mm 0 W/m2
20:31 19.9 °C 14.9 °C 1017.2 hPa Calm   1.6 km/h 73 % 0 mm 0 W/m2
20:36 19.7 °C 14.7 °C 1017.2 hPa Calm   4.8 km/h 73 % 0 mm 0 W/m2
20:41 19.6 °C 14.6 °C 1017.2 hPa WSW 1.6 km/h 6.4 km/h 73 % 0 mm 0 W/m2
20:46 19.4 °C 14.7 °C 1017.2 hPa WSW 1.6 km/h 8 km/h 74 % 0 mm 0 W/m2
20:51 19.3 °C 14.6 °C 1017.2 hPa WSW 1.6 km/h 8 km/h 74 % 0 mm 0 W/m2
20:56 19.1 °C 14.3 °C 1017.2 hPa Calm   4.8 km/h 74 % 0 mm 0 W/m2
21:01 18.9 °C 14.4 °C 1017.2 hPa Calm   1.6 km/h 75 % 0 mm 0 W/m2
21:06 18.8 °C 14.3 °C 1017.5 hPa Calm   1.6 km/h 75 % 0 mm 0 W/m2
21:11 18.6 °C 14.3 °C 1017.5 hPa Calm     76 % 0 mm 0 W/m2
21:16 18.4 °C 14.1 °C 1017.5 hPa Calm   3.2 km/h 76 % 0 mm 0 W/m2
21:21 18.2 °C 14.1 °C 1017.5 hPa Calm   3.2 km/h 77 % 0 mm 0 W/m2
21:26 18 °C 13.9 °C 1017.5 hPa Calm   3.2 km/h 77 % 0 mm 0 W/m2
21:31 17.9 °C 13.8 °C 1017.5 hPa WSW 1.6 km/h 6.4 km/h 77 % 0 mm 0 W/m2
21:36 17.7 °C 13.8 °C 1017.5 hPa WNW 3.2 km/h 8 km/h 78 % 0 mm 0 W/m2
21:41 17.7 °C 13.8 °C 1017.5 hPa NW 3.2 km/h 8 km/h 78 % 0 mm 0 W/m2
21:46 17.6 °C 13.9 °C 1017.5 hPa NW 1.6 km/h 6.4 km/h 79 % 0 mm 0 W/m2
21:51 17.4 °C 13.9 °C 1017.5 hPa Calm     80 % 0 mm 0 W/m2
21:56 17.3 °C 14 °C 1017.5 hPa Calm     81 % 0 mm 0 W/m2
22:01 17.1 °C 13.8 °C 1017.5 hPa Calm     81 % 0 mm 0 W/m2
22:06 16.9 °C 13.8 °C 1017.5 hPa Calm     82 % 0 mm 0 W/m2
22:11 16.8 °C 13.7 °C 1017.5 hPa Calm     82 % 0 mm 0 W/m2
22:16 16.7 °C 13.6 °C 1017.5 hPa Calm     82 % 0 mm 0 W/m2
22:21 16.6 °C 13.7 °C 1017.5 hPa Calm     83 % 0 mm 0 W/m2
22:26 16.5 °C 13.6 °C 1017.5 hPa Calm     83 % 0 mm 0 W/m2
22:31 16.4 °C 13.5 °C 1017.5 hPa Calm     83 % 0 mm 0 W/m2
22:36 16.3 °C 13.6 °C 1017.5 hPa Calm     84 % 0 mm 0 W/m2
22:41 16.2 °C 13.5 °C 1017.5 hPa Calm     84 % 0 mm 0 W/m2
22:46 16.2 °C 13.5 °C 1017.5 hPa Calm     84 % 0 mm 0 W/m2
22:51 16.1 °C 13.4 °C 1017.5 hPa Calm     84 % 0 mm 0 W/m2
22:56 16.1 °C 13.6 °C 1017.5 hPa Calm     85 % 0 mm 0 W/m2
23:01 16 °C 13.5 °C 1017.5 hPa Calm     85 % 0 mm 0 W/m2
23:06 16 °C 13.5 °C 1017.5 hPa Calm     85 % 0 mm 0 W/m2
23:11 15.9 °C 13.6 °C 1017.5 hPa Calm     86 % 0 mm 0 W/m2
23:16 15.9 °C 13.6 °C 1017.5 hPa Calm   4.8 km/h 86 % 0 mm 0 W/m2
23:21 16 °C 13.7 °C 1017.5 hPa Calm   4.8 km/h 86 % 0 mm 0 W/m2
23:27 16 °C 13.7 °C 1017.5 hPa Calm     86 % 0 mm 0 W/m2
23:32 16 °C 13.7 °C 1017.5 hPa Calm     86 % 0 mm 0 W/m2
23:37 16 °C 13.7 °C 1017.5 hPa Calm   1.6 km/h 86 % 0 mm 0 W/m2
23:42 15.9 °C 13.4 °C 1017.5 hPa Calm   3.2 km/h 85 % 0 mm 0 W/m2
23:47 15.8 °C 13.3 °C 1017.5 hPa Calm   3.2 km/h 85 % 0 mm 0 W/m2
23:52 15.7 °C 13.2 °C 1017.5 hPa Calm     85 % 0 mm 0 W/m2
23:57 15.6 °C 13.1 °C 1017.5 hPa Calm     85 % 0 mm 0 W/m2
Delerius-Weather
Compliments of Weather Underground - 2.25 mb

Data updates at regular intervals.